sensor_id;sensor_type;location;lat;lon;timestamp;temperature;humidity
12164;DHT22;6145;50.192;10.064;2023-07-30T00:02:22;19.20;93.20
12164;DHT22;6145;50.192;10.064;2023-07-30T00:04:49;19.20;93.20
12164;DHT22;6145;50.192;10.064;2023-07-30T00:07:16;19.30;93.20
12164;DHT22;6145;50.192;10.064;2023-07-30T00:09:43;19.40;93.20
12164;DHT22;6145;50.192;10.064;2023-07-30T00:12:09;19.30;93.10
12164;DHT22;6145;50.192;10.064;2023-07-30T00:14:36;22.40;94.30
12164;DHT22;6145;50.192;10.064;2023-07-30T00:17:04;19.40;93.50
12164;DHT22;6145;50.192;10.064;2023-07-30T00:19:32;19.40;93.10
12164;DHT22;6145;50.192;10.064;2023-07-30T00:21:59;19.40;93.00
12164;DHT22;6145;50.192;10.064;2023-07-30T00:24:26;19.50;92.80
12164;DHT22;6145;50.192;10.064;2023-07-30T00:26:53;19.40;93.00
12164;DHT22;6145;50.192;10.064;2023-07-30T00:29:19;19.50;93.10
12164;DHT22;6145;50.192;10.064;2023-07-30T00:31:46;19.50;93.00
12164;DHT22;6145;50.192;10.064;2023-07-30T00:34:27;20.80;93.80
12164;DHT22;6145;50.192;10.064;2023-07-30T00:36:56;19.50;93.10
12164;DHT22;6145;50.192;10.064;2023-07-30T00:39:22;19.70;93.30
12164;DHT22;6145;50.192;10.064;2023-07-30T00:41:49;19.40;93.30
12164;DHT22;6145;50.192;10.064;2023-07-30T00:44:18;19.40;93.30
12164;DHT22;6145;50.192;10.064;2023-07-30T00:46:45;19.40;93.40
12164;DHT22;6145;50.192;10.064;2023-07-30T00:49:12;19.40;93.20
12164;DHT22;6145;50.192;10.064;2023-07-30T00:51:39;19.40;93.20
12164;DHT22;6145;50.192;10.064;2023-07-30T00:54:08;19.40;93.30
12164;DHT22;6145;50.192;10.064;2023-07-30T00:56:35;19.40;93.10
12164;DHT22;6145;50.192;10.064;2023-07-30T00:59:02;19.40;93.10
12164;DHT22;6145;50.192;10.064;2023-07-30T01:01:33;19.40;93.20
12164;DHT22;6145;50.192;10.064;2023-07-30T01:04:02;19.40;93.00
12164;DHT22;6145;50.192;10.064;2023-07-30T01:06:30;19.40;93.00
12164;DHT22;6145;50.192;10.064;2023-07-30T01:08:56;19.40;93.40
12164;DHT22;6145;50.192;10.064;2023-07-30T01:11:24;19.40;93.30
12164;DHT22;6145;50.192;10.064;2023-07-30T01:14:02;19.40;93.40
12164;DHT22;6145;50.192;10.064;2023-07-30T01:16:30;19.40;93.30
12164;DHT22;6145;50.192;10.064;2023-07-30T01:18:57;19.60;93.30
12164;DHT22;6145;50.192;10.064;2023-07-30T01:21:31;19.70;93.60
12164;DHT22;6145;50.192;10.064;2023-07-30T01:23:58;19.30;93.40
12164;DHT22;6145;50.192;10.064;2023-07-30T01:26:27;19.30;93.30
12164;DHT22;6145;50.192;10.064;2023-07-30T01:28:58;19.30;93.20
12164;DHT22;6145;50.192;10.064;2023-07-30T01:31:27;19.40;93.00
12164;DHT22;6145;50.192;10.064;2023-07-30T01:33:56;19.30;93.10
12164;DHT22;6145;50.192;10.064;2023-07-30T01:36:24;19.40;93.50
12164;DHT22;6145;50.192;10.064;2023-07-30T01:38:52;19.40;93.50
12164;DHT22;6145;50.192;10.064;2023-07-30T01:41:20;19.50;93.70
12164;DHT22;6145;50.192;10.064;2023-07-30T01:43:46;19.30;93.50
12164;DHT22;6145;50.192;10.064;2023-07-30T01:46:13;19.20;93.60
12164;DHT22;6145;50.192;10.064;2023-07-30T01:48:40;19.30;93.50
12164;DHT22;6145;50.192;10.064;2023-07-30T01:51:07;19.20;93.40
12164;DHT22;6145;50.192;10.064;2023-07-30T01:53:34;19.20;93.60
12164;DHT22;6145;50.192;10.064;2023-07-30T01:56:02;19.20;93.70
12164;DHT22;6145;50.192;10.064;2023-07-30T01:58:29;19.20;93.80
12164;DHT22;6145;50.192;10.064;2023-07-30T02:00:55;19.40;93.90
12164;DHT22;6145;50.192;10.064;2023-07-30T02:03:22;19.20;94.00
12164;DHT22;6145;50.192;10.064;2023-07-30T02:05:49;19.00;93.80
12164;DHT22;6145;50.192;10.064;2023-07-30T02:08:18;19.20;93.70
12164;DHT22;6145;50.192;10.064;2023-07-30T02:10:54;19.20;93.70
12164;DHT22;6145;50.192;10.064;2023-07-30T02:13:23;19.80;94.30
12164;DHT22;6145;50.192;10.064;2023-07-30T02:15:50;19.20;94.00
12164;DHT22;6145;50.192;10.064;2023-07-30T02:18:18;19.10;94.00
12164;DHT22;6145;50.192;10.064;2023-07-30T02:20:45;19.20;94.10
12164;DHT22;6145;50.192;10.064;2023-07-30T02:23:14;19.10;93.90
12164;DHT22;6145;50.192;10.064;2023-07-30T02:25:41;19.10;93.90
12164;DHT22;6145;50.192;10.064;2023-07-30T02:28:08;19.20;93.80
12164;DHT22;6145;50.192;10.064;2023-07-30T02:30:37;19.10;93.90
12164;DHT22;6145;50.192;10.064;2023-07-30T02:33:04;19.10;94.20
12164;DHT22;6145;50.192;10.064;2023-07-30T02:35:31;19.10;93.90
12164;DHT22;6145;50.192;10.064;2023-07-30T02:37:58;19.10;93.80
12164;DHT22;6145;50.192;10.064;2023-07-30T02:40:25;20.00;94.10
12164;DHT22;6145;50.192;10.064;2023-07-30T02:42:52;19.00;93.70
12164;DHT22;6145;50.192;10.064;2023-07-30T02:45:19;19.00;93.70
12164;DHT22;6145;50.192;10.064;2023-07-30T02:48:06;19.00;93.80
12164;DHT22;6145;50.192;10.064;2023-07-30T02:50:32;19.00;93.70
12164;DHT22;6145;50.192;10.064;2023-07-30T02:52:59;19.00;93.80
12164;DHT22;6145;50.192;10.064;2023-07-30T02:55:26;19.00;93.80
12164;DHT22;6145;50.192;10.064;2023-07-30T02:57:53;18.90;93.60
12164;DHT22;6145;50.192;10.064;2023-07-30T03:00:20;19.00;93.60
12164;DHT22;6145;50.192;10.064;2023-07-30T03:02:47;18.90;93.60
12164;DHT22;6145;50.192;10.064;2023-07-30T03:05:15;18.90;93.50
12164;DHT22;6145;50.192;10.064;2023-07-30T03:07:44;18.90;93.60
12164;DHT22;6145;50.192;10.064;2023-07-30T03:10:11;19.50;93.80
12164;DHT22;6145;50.192;10.064;2023-07-30T03:12:38;18.90;93.50
12164;DHT22;6145;50.192;10.064;2023-07-30T03:15:05;19.00;93.60
12164;DHT22;6145;50.192;10.064;2023-07-30T03:17:32;18.80;93.50
12164;DHT22;6145;50.192;10.064;2023-07-30T03:19:59;18.90;93.50
12164;DHT22;6145;50.192;10.064;2023-07-30T03:22:27;18.80;93.60
12164;DHT22;6145;50.192;10.064;2023-07-30T03:24:54;19.50;93.90
12164;DHT22;6145;50.192;10.064;2023-07-30T03:27:21;18.90;93.50
12164;DHT22;6145;50.192;10.064;2023-07-30T03:29:48;18.80;93.50
12164;DHT22;6145;50.192;10.064;2023-07-30T03:32:15;18.80;93.50
12164;DHT22;6145;50.192;10.064;2023-07-30T03:34:41;18.80;93.50
12164;DHT22;6145;50.192;10.064;2023-07-30T03:37:08;18.80;93.60
12164;DHT22;6145;50.192;10.064;2023-07-30T03:39:36;18.80;93.70
12164;DHT22;6145;50.192;10.064;2023-07-30T03:42:04;18.50;93.80
12164;DHT22;6145;50.192;10.064;2023-07-30T03:44:30;18.80;93.90
12164;DHT22;6145;50.192;10.064;2023-07-30T03:46:57;18.80;93.90
12164;DHT22;6145;50.192;10.064;2023-07-30T03:49:24;19.20;94.50
12164;DHT22;6145;50.192;10.064;2023-07-30T03:51:52;18.80;94.00
12164;DHT22;6145;50.192;10.064;2023-07-30T03:54:18;18.70;94.00
12164;DHT22;6145;50.192;10.064;2023-07-30T03:56:47;19.20;94.20
12164;DHT22;6145;50.192;10.064;2023-07-30T03:59:13;18.70;93.80
12164;DHT22;6145;50.192;10.064;2023-07-30T04:01:40;18.70;94.10
12164;DHT22;6145;50.192;10.064;2023-07-30T04:04:07;18.90;94.20
12164;DHT22;6145;50.192;10.064;2023-07-30T04:06:34;19.70;94.80
12164;DHT22;6145;50.192;10.064;2023-07-30T04:09:02;18.70;94.30
12164;DHT22;6145;50.192;10.064;2023-07-30T04:11:29;18.80;94.40
12164;DHT22;6145;50.192;10.064;2023-07-30T04:13:57;18.70;94.50
12164;DHT22;6145;50.192;10.064;2023-07-30T04:16:24;18.60;94.50
12164;DHT22;6145;50.192;10.064;2023-07-30T04:18:51;18.60;94.70
12164;DHT22;6145;50.192;10.064;2023-07-30T04:21:17;18.50;94.80
12164;DHT22;6145;50.192;10.064;2023-07-30T04:23:44;18.50;95.00
12164;DHT22;6145;50.192;10.064;2023-07-30T04:26:11;18.60;95.00
12164;DHT22;6145;50.192;10.064;2023-07-30T04:28:38;19.30;95.30
12164;DHT22;6145;50.192;10.064;2023-07-30T04:31:08;18.60;95.20
12164;DHT22;6145;50.192;10.064;2023-07-30T04:33:34;18.50;95.30
12164;DHT22;6145;50.192;10.064;2023-07-30T04:36:01;18.90;95.70
12164;DHT22;6145;50.192;10.064;2023-07-30T04:38:28;18.50;95.80
12164;DHT22;6145;50.192;10.064;2023-07-30T04:40:58;18.40;96.10
12164;DHT22;6145;50.192;10.064;2023-07-30T04:43:25;18.30;96.30
12164;DHT22;6145;50.192;10.064;2023-07-30T04:45:52;18.30;96.60
12164;DHT22;6145;50.192;10.064;2023-07-30T04:48:22;18.30;96.80
12164;DHT22;6145;50.192;10.064;2023-07-30T04:50:51;18.70;97.00
12164;DHT22;6145;50.192;10.064;2023-07-30T04:53:18;18.30;96.70
12164;DHT22;6145;50.192;10.064;2023-07-30T04:55:46;18.30;97.00
12164;DHT22;6145;50.192;10.064;2023-07-30T04:58:13;18.40;97.20
12164;DHT22;6145;50.192;10.064;2023-07-30T05:00:49;18.40;97.30
12164;DHT22;6145;50.192;10.064;2023-07-30T05:03:17;18.70;97.30
12164;DHT22;6145;50.192;10.064;2023-07-30T06:50:04;22.50;95.60
12164;DHT22;6145;50.192;10.064;2023-07-30T06:52:33;22.50;95.00
12164;DHT22;6145;50.192;10.064;2023-07-30T06:55:00;22.50;95.40
12164;DHT22;6145;50.192;10.064;2023-07-30T06:57:29;22.40;95.20
12164;DHT22;6145;50.192;10.064;2023-07-30T06:59:56;22.40;94.80
12164;DHT22;6145;50.192;10.064;2023-07-30T07:02:23;22.40;94.70
12164;DHT22;6145;50.192;10.064;2023-07-30T07:04:50;22.40;94.80
12164;DHT22;6145;50.192;10.064;2023-07-30T07:07:18;22.40;95.00
12164;DHT22;6145;50.192;10.064;2023-07-30T07:09:45;22.40;95.20
12164;DHT22;6145;50.192;10.064;2023-07-30T07:12:11;22.50;94.40
12164;DHT22;6145;50.192;10.064;2023-07-30T07:14:38;22.50;94.40
12164;DHT22;6145;50.192;10.064;2023-07-30T07:17:06;23.00;94.20
12164;DHT22;6145;50.192;10.064;2023-07-30T07:19:33;22.60;93.50
12164;DHT22;6145;50.192;10.064;2023-07-30T07:22:02;22.50;93.60
12164;DHT22;6145;50.192;10.064;2023-07-30T07:24:30;22.60;93.90
12164;DHT22;6145;50.192;10.064;2023-07-30T07:26:57;22.70;95.10
12164;DHT22;6145;50.192;10.064;2023-07-30T07:29:24;22.80;94.80
12164;DHT22;6145;50.192;10.064;2023-07-30T07:31:51;23.00;93.80
12164;DHT22;6145;50.192;10.064;2023-07-30T07:34:18;23.80;93.50
12164;DHT22;6145;50.192;10.064;2023-07-30T07:36:45;23.20;92.70
12164;DHT22;6145;50.192;10.064;2023-07-30T07:39:12;23.30;92.20
12164;DHT22;6145;50.192;10.064;2023-07-30T07:41:40;23.40;91.90
12164;DHT22;6145;50.192;10.064;2023-07-30T07:44:07;23.40;91.50
12164;DHT22;6145;50.192;10.064;2023-07-30T07:46:33;23.50;91.70
12164;DHT22;6145;50.192;10.064;2023-07-30T07:49:00;23.60;91.20
12164;DHT22;6145;50.192;10.064;2023-07-30T07:51:30;23.90;90.90
12164;DHT22;6145;50.192;10.064;2023-07-30T07:53:58;23.80;89.70
12164;DHT22;6145;50.192;10.064;2023-07-30T07:56:25;23.80;90.10
12164;DHT22;6145;50.192;10.064;2023-07-30T07:58:59;23.90;88.70
12164;DHT22;6145;50.192;10.064;2023-07-30T08:01:26;24.00;88.10
12164;DHT22;6145;50.192;10.064;2023-07-30T08:03:52;24.00;87.10
12164;DHT22;6145;50.192;10.064;2023-07-30T08:06:19;24.10;86.70
12164;DHT22;6145;50.192;10.064;2023-07-30T08:08:46;24.10;87.60
12164;DHT22;6145;50.192;10.064;2023-07-30T08:11:13;24.20;86.40
12164;DHT22;6145;50.192;10.064;2023-07-30T08:13:39;24.30;87.80
12164;DHT22;6145;50.192;10.064;2023-07-30T08:16:07;24.40;87.00
12164;DHT22;6145;50.192;10.064;2023-07-30T08:18:34;24.40;86.70
12164;DHT22;6145;50.192;10.064;2023-07-30T08:21:01;24.50;85.70
12164;DHT22;6145;50.192;10.064;2023-07-30T08:23:28;24.50;83.10
12164;DHT22;6145;50.192;10.064;2023-07-30T08:25:58;24.60;83.40
12164;DHT22;6145;50.192;10.064;2023-07-30T08:28:25;24.70;81.80
12164;DHT22;6145;50.192;10.064;2023-07-30T08:30:51;24.50;81.00
12164;DHT22;6145;50.192;10.064;2023-07-30T08:33:19;24.60;82.00
12164;DHT22;6145;50.192;10.064;2023-07-30T08:35:46;24.60;81.80
12164;DHT22;6145;50.192;10.064;2023-07-30T08:38:13;24.60;81.40
12164;DHT22;6145;50.192;10.064;2023-07-30T08:40:39;24.60;81.10
12164;DHT22;6145;50.192;10.064;2023-07-30T08:43:06;24.70;81.50
12164;DHT22;6145;50.192;10.064;2023-07-30T08:45:33;24.70;80.00
12164;DHT22;6145;50.192;10.064;2023-07-30T08:48:00;24.70;80.30
12164;DHT22;6145;50.192;10.064;2023-07-30T08:50:28;24.70;79.50
12164;DHT22;6145;50.192;10.064;2023-07-30T08:52:55;24.60;78.90
12164;DHT22;6145;50.192;10.064;2023-07-30T08:55:24;24.70;79.00
12164;DHT22;6145;50.192;10.064;2023-07-30T08:57:53;24.60;80.10
12164;DHT22;6145;50.192;10.064;2023-07-30T09:00:22;24.60;79.90
12164;DHT22;6145;50.192;10.064;2023-07-30T09:02:52;24.60;79.80
12164;DHT22;6145;50.192;10.064;2023-07-30T09:05:20;24.60;80.10
12164;DHT22;6145;50.192;10.064;2023-07-30T09:07:49;24.60;81.10
12164;DHT22;6145;50.192;10.064;2023-07-30T09:10:16;24.60;79.90
12164;DHT22;6145;50.192;10.064;2023-07-30T09:12:43;24.60;79.50
12164;DHT22;6145;50.192;10.064;2023-07-30T09:15:10;24.40;80.20
12164;DHT22;6145;50.192;10.064;2023-07-30T09:17:37;24.60;80.10
12164;DHT22;6145;50.192;10.064;2023-07-30T09:20:05;24.60;81.20
12164;DHT22;6145;50.192;10.064;2023-07-30T09:22:34;24.70;80.10
12164;DHT22;6145;50.192;10.064;2023-07-30T09:25:06;24.80;80.30
12164;DHT22;6145;50.192;10.064;2023-07-30T09:27:34;24.90;79.00
12164;DHT22;6145;50.192;10.064;2023-07-30T09:30:02;24.90;77.60
12164;DHT22;6145;50.192;10.064;2023-07-30T09:32:31;25.00;77.80
12164;DHT22;6145;50.192;10.064;2023-07-30T09:35:04;25.10;74.40
12164;DHT22;6145;50.192;10.064;2023-07-30T09:37:32;25.10;76.00
12164;DHT22;6145;50.192;10.064;2023-07-30T10:53:17;22.10;90.80
12164;DHT22;6145;50.192;10.064;2023-07-30T10:55:45;22.20;91.00
12164;DHT22;6145;50.192;10.064;2023-07-30T10:58:12;22.30;91.10
12164;DHT22;6145;50.192;10.064;2023-07-30T11:00:40;22.40;91.20
12164;DHT22;6145;50.192;10.064;2023-07-30T11:03:07;22.50;91.20
12164;DHT22;6145;50.192;10.064;2023-07-30T11:05:33;22.50;91.10
12164;DHT22;6145;50.192;10.064;2023-07-30T11:08:00;22.60;90.90
12164;DHT22;6145;50.192;10.064;2023-07-30T11:10:29;22.70;90.90
12164;DHT22;6145;50.192;10.064;2023-07-30T11:12:57;22.80;91.40
12164;DHT22;6145;50.192;10.064;2023-07-30T11:15:24;22.90;91.00
12164;DHT22;6145;50.192;10.064;2023-07-30T11:17:52;23.00;90.40
12164;DHT22;6145;50.192;10.064;2023-07-30T11:20:22;23.10;90.20
12164;DHT22;6145;50.192;10.064;2023-07-30T11:22:51;23.20;90.10
12164;DHT22;6145;50.192;10.064;2023-07-30T11:25:18;23.30;89.90
12164;DHT22;6145;50.192;10.064;2023-07-30T11:27:47;23.40;88.70
12164;DHT22;6145;50.192;10.064;2023-07-30T11:30:14;23.70;88.90
12164;DHT22;6145;50.192;10.064;2023-07-30T11:32:42;23.70;88.00
12164;DHT22;6145;50.192;10.064;2023-07-30T11:35:10;23.80;87.40
12164;DHT22;6145;50.192;10.064;2023-07-30T11:37:38;23.90;87.60
12164;DHT22;6145;50.192;10.064;2023-07-30T11:40:07;24.00;87.50
12164;DHT22;6145;50.192;10.064;2023-07-30T11:42:34;24.00;87.60
12164;DHT22;6145;50.192;10.064;2023-07-30T11:45:21;24.00;86.00
12164;DHT22;6145;50.192;10.064;2023-07-30T11:47:49;23.60;83.40
12164;DHT22;6145;50.192;10.064;2023-07-30T11:50:16;23.50;83.70
12164;DHT22;6145;50.192;10.064;2023-07-30T11:52:53;23.30;83.40
12164;DHT22;6145;50.192;10.064;2023-07-30T11:55:20;23.30;85.10
12164;DHT22;6145;50.192;10.064;2023-07-30T11:57:47;22.90;85.30
12164;DHT22;6145;50.192;10.064;2023-07-30T12:00:14;23.00;86.00
12164;DHT22;6145;50.192;10.064;2023-07-30T12:02:43;22.90;86.40
12164;DHT22;6145;50.192;10.064;2023-07-30T12:05:10;22.80;86.90
12164;DHT22;6145;50.192;10.064;2023-07-30T12:07:40;22.80;87.90
12164;DHT22;6145;50.192;10.064;2023-07-30T12:10:08;22.70;88.60
12164;DHT22;6145;50.192;10.064;2023-07-30T12:12:35;22.70;89.20
12164;DHT22;6145;50.192;10.064;2023-07-30T12:15:10;22.80;89.00
12164;DHT22;6145;50.192;10.064;2023-07-30T12:17:37;22.80;89.00
12164;DHT22;6145;50.192;10.064;2023-07-30T12:20:06;21.90;87.40
12164;DHT22;6145;50.192;10.064;2023-07-30T12:22:33;22.80;87.20
12164;DHT22;6145;50.192;10.064;2023-07-30T12:25:01;22.90;86.70
12164;DHT22;6145;50.192;10.064;2023-07-30T12:27:28;22.90;87.60
12164;DHT22;6145;50.192;10.064;2023-07-30T12:29:55;23.00;87.80
12164;DHT22;6145;50.192;10.064;2023-07-30T12:32:22;23.20;88.40
12164;DHT22;6145;50.192;10.064;2023-07-30T12:34:49;23.40;87.30
12164;DHT22;6145;50.192;10.064;2023-07-30T12:37:18;23.40;87.50
12164;DHT22;6145;50.192;10.064;2023-07-30T12:39:45;23.50;84.60
12164;DHT22;6145;50.192;10.064;2023-07-30T12:42:11;23.60;84.70
12164;DHT22;6145;50.192;10.064;2023-07-30T12:44:38;23.70;84.70
12164;DHT22;6145;50.192;10.064;2023-07-30T12:47:05;23.80;84.60
12164;DHT22;6145;50.192;10.064;2023-07-30T12:49:32;23.90;81.50
12164;DHT22;6145;50.192;10.064;2023-07-30T12:51:58;24.00;82.10
12164;DHT22;6145;50.192;10.064;2023-07-30T12:54:27;24.00;82.00
12164;DHT22;6145;50.192;10.064;2023-07-30T12:56:53;24.20;81.90
12164;DHT22;6145;50.192;10.064;2023-07-30T12:59:20;24.50;82.50
12164;DHT22;6145;50.192;10.064;2023-07-30T13:01:48;24.20;81.70
12164;DHT22;6145;50.192;10.064;2023-07-30T13:04:16;24.30;80.80
12164;DHT22;6145;50.192;10.064;2023-07-30T13:06:42;24.30;79.90
12164;DHT22;6145;50.192;10.064;2023-07-30T13:09:09;24.40;80.00
12164;DHT22;6145;50.192;10.064;2023-07-30T13:11:37;24.40;80.00
12164;DHT22;6145;50.192;10.064;2023-07-30T13:14:05;24.50;78.80
12164;DHT22;6145;50.192;10.064;2023-07-30T13:19:54;24.70;77.50
12164;DHT22;6145;50.192;10.064;2023-07-30T13:29:54;24.50;72.20
12164;DHT22;6145;50.192;10.064;2023-07-30T19:40:49;20.60;71.00
12164;DHT22;6145;50.192;10.064;2023-07-30T19:43:28;20.50;71.40
12164;DHT22;6145;50.192;10.064;2023-07-30T19:45:55;20.50;71.20
12164;DHT22;6145;50.192;10.064;2023-07-30T19:48:23;20.50;70.40
12164;DHT22;6145;50.192;10.064;2023-07-30T19:50:50;20.40;69.80
12164;DHT22;6145;50.192;10.064;2023-07-30T19:53:18;20.30;69.70
12164;DHT22;6145;50.192;10.064;2023-07-30T19:55:45;20.30;70.20
12164;DHT22;6145;50.192;10.064;2023-07-30T19:58:25;20.30;70.20
12164;DHT22;6145;50.192;10.064;2023-07-30T20:00:55;20.40;70.30
12164;DHT22;6145;50.192;10.064;2023-07-30T20:03:23;20.20;70.70
12164;DHT22;6145;50.192;10.064;2023-07-30T20:05:50;20.40;70.10
12164;DHT22;6145;50.192;10.064;2023-07-30T20:08:21;20.10;70.20
12164;DHT22;6145;50.192;10.064;2023-07-30T20:10:49;20.10;70.20
12164;DHT22;6145;50.192;10.064;2023-07-30T20:13:26;20.10;70.80
12164;DHT22;6145;50.192;10.064;2023-07-30T20:16:11;20.00;71.10
12164;DHT22;6145;50.192;10.064;2023-07-30T20:18:41;20.20;71.50
12164;DHT22;6145;50.192;10.064;2023-07-30T20:21:08;20.00;71.50
12164;DHT22;6145;50.192;10.064;2023-07-30T20:23:36;19.90;71.50
12164;DHT22;6145;50.192;10.064;2023-07-30T20:26:10;20.30;72.10
12164;DHT22;6145;50.192;10.064;2023-07-30T20:28:41;19.90;71.60
12164;DHT22;6145;50.192;10.064;2023-07-30T20:31:26;19.90;72.10
12164;DHT22;6145;50.192;10.064;2023-07-30T20:33:57;20.00;72.40
12164;DHT22;6145;50.192;10.064;2023-07-30T20:36:42;20.20;72.70
12164;DHT22;6145;50.192;10.064;2023-07-30T20:39:09;19.80;72.30
12164;DHT22;6145;50.192;10.064;2023-07-30T20:41:39;19.70;72.10
12164;DHT22;6145;50.192;10.064;2023-07-30T20:44:08;20.90;73.70
12164;DHT22;6145;50.192;10.064;2023-07-30T20:46:37;19.60;72.70
12164;DHT22;6145;50.192;10.064;2023-07-30T20:49:04;19.60;72.50
12164;DHT22;6145;50.192;10.064;2023-07-30T20:51:31;19.60;72.20
12164;DHT22;6145;50.192;10.064;2023-07-30T20:54:00;18.60;71.60
12164;DHT22;6145;50.192;10.064;2023-07-30T20:56:30;19.50;71.90
12164;DHT22;6145;50.192;10.064;2023-07-30T20:58:58;19.40;71.90
12164;DHT22;6145;50.192;10.064;2023-07-30T21:01:28;19.40;71.80
12164;DHT22;6145;50.192;10.064;2023-07-30T21:03:57;19.40;72.00
12164;DHT22;6145;50.192;10.064;2023-07-30T21:06:25;19.30;71.70
12164;DHT22;6145;50.192;10.064;2023-07-30T21:08:52;19.30;72.10
12164;DHT22;6145;50.192;10.064;2023-07-30T21:11:18;19.20;71.40
12164;DHT22;6145;50.192;10.064;2023-07-30T21:13:45;19.20;71.40
12164;DHT22;6145;50.192;10.064;2023-07-30T21:16:12;19.10;71.40
12164;DHT22;6145;50.192;10.064;2023-07-30T21:18:42;19.10;71.50
12164;DHT22;6145;50.192;10.064;2023-07-30T21:21:09;19.10;71.40
12164;DHT22;6145;50.192;10.064;2023-07-30T21:23:38;19.90;71.90
12164;DHT22;6145;50.192;10.064;2023-07-30T21:26:05;19.00;70.80
12164;DHT22;6145;50.192;10.064;2023-07-30T21:28:32;19.50;71.40
12164;DHT22;6145;50.192;10.064;2023-07-30T21:31:02;18.90;70.60
12164;DHT22;6145;50.192;10.064;2023-07-30T21:33:30;18.80;70.80
12164;DHT22;6145;50.192;10.064;2023-07-30T21:35:59;18.90;70.90
12164;DHT22;6145;50.192;10.064;2023-07-30T21:38:29;18.80;70.90
12164;DHT22;6145;50.192;10.064;2023-07-30T21:40:57;19.00;71.40
12164;DHT22;6145;50.192;10.064;2023-07-30T21:43:24;18.70;70.80
12164;DHT22;6145;50.192;10.064;2023-07-30T21:45:54;18.70;70.70
12164;DHT22;6145;50.192;10.064;2023-07-30T21:48:22;18.70;71.20
12164;DHT22;6145;50.192;10.064;2023-07-30T21:50:57;19.40;72.10
12164;DHT22;6145;50.192;10.064;2023-07-30T21:53:26;19.10;71.80
12164;DHT22;6145;50.192;10.064;2023-07-30T21:55:54;18.80;71.20
12164;DHT22;6145;50.192;10.064;2023-07-30T21:58:21;19.80;72.20
12164;DHT22;6145;50.192;10.064;2023-07-30T22:00:53;18.50;70.80
12164;DHT22;6145;50.192;10.064;2023-07-30T22:03:20;18.50;71.30
12164;DHT22;6145;50.192;10.064;2023-07-30T22:05:47;19.10;72.00
12164;DHT22;6145;50.192;10.064;2023-07-30T22:08:14;19.80;72.50
12164;DHT22;6145;50.192;10.064;2023-07-30T22:10:46;18.70;72.30
12164;DHT22;6145;50.192;10.064;2023-07-30T22:13:14;18.90;72.00
12164;DHT22;6145;50.192;10.064;2023-07-30T22:15:42;18.60;71.60
12164;DHT22;6145;50.192;10.064;2023-07-30T22:18:09;18.60;71.50
12164;DHT22;6145;50.192;10.064;2023-07-30T22:20:36;18.80;71.70
12164;DHT22;6145;50.192;10.064;2023-07-30T22:23:03;19.00;71.80
12164;DHT22;6145;50.192;10.064;2023-07-30T22:25:33;18.60;70.90
12164;DHT22;6145;50.192;10.064;2023-07-30T22:28:01;18.50;71.10
12164;DHT22;6145;50.192;10.064;2023-07-30T22:30:28;18.50;71.30
12164;DHT22;6145;50.192;10.064;2023-07-30T22:32:57;19.20;71.90
12164;DHT22;6145;50.192;10.064;2023-07-30T22:35:24;18.70;71.40
12164;DHT22;6145;50.192;10.064;2023-07-30T22:37:51;18.40;71.20
12164;DHT22;6145;50.192;10.064;2023-07-30T22:40:20;18.60;71.60
12164;DHT22;6145;50.192;10.064;2023-07-30T22:42:53;18.50;71.40
12164;DHT22;6145;50.192;10.064;2023-07-30T22:45:25;18.40;71.30
12164;DHT22;6145;50.192;10.064;2023-07-30T22:47:52;18.40;71.70
12164;DHT22;6145;50.192;10.064;2023-07-30T22:50:19;18.90;72.20
12164;DHT22;6145;50.192;10.064;2023-07-30T22:52:46;18.40;71.60
12164;DHT22;6145;50.192;10.064;2023-07-30T22:55:13;18.50;72.20
12164;DHT22;6145;50.192;10.064;2023-07-30T22:57:40;18.40;72.10
12164;DHT22;6145;50.192;10.064;2023-07-30T23:00:07;18.50;72.90
12164;DHT22;6145;50.192;10.064;2023-07-30T23:02:36;18.40;72.20
12164;DHT22;6145;50.192;10.064;2023-07-30T23:05:03;18.40;71.90
12164;DHT22;6145;50.192;10.064;2023-07-30T23:07:30;16.90;70.40
12164;DHT22;6145;50.192;10.064;2023-07-30T23:09:57;18.60;72.20
12164;DHT22;6145;50.192;10.064;2023-07-30T23:12:27;18.90;72.80
12164;DHT22;6145;50.192;10.064;2023-07-30T23:14:54;18.50;72.60
12164;DHT22;6145;50.192;10.064;2023-07-30T23:17:20;18.40;72.40
12164;DHT22;6145;50.192;10.064;2023-07-30T23:19:49;18.40;72.30
12164;DHT22;6145;50.192;10.064;2023-07-30T23:22:16;18.10;72.50
12164;DHT22;6145;50.192;10.064;2023-07-30T23:24:42;18.80;72.90
12164;DHT22;6145;50.192;10.064;2023-07-30T23:27:09;18.50;72.60
12164;DHT22;6145;50.192;10.064;2023-07-30T23:29:36;18.30;72.70
12164;DHT22;6145;50.192;10.064;2023-07-30T23:32:05;18.50;72.80
12164;DHT22;6145;50.192;10.064;2023-07-30T23:34:32;18.30;72.70
12164;DHT22;6145;50.192;10.064;2023-07-30T23:37:00;18.40;73.10
12164;DHT22;6145;50.192;10.064;2023-07-30T23:39:27;18.30;73.10
12164;DHT22;6145;50.192;10.064;2023-07-30T23:41:54;19.00;74.00
12164;DHT22;6145;50.192;10.064;2023-07-30T23:44:21;18.60;73.50
12164;DHT22;6145;50.192;10.064;2023-07-30T23:46:50;18.30;73.30
12164;DHT22;6145;50.192;10.064;2023-07-30T23:49:17;18.20;73.10
12164;DHT22;6145;50.192;10.064;2023-07-30T23:51:44;18.20;73.20
12164;DHT22;6145;50.192;10.064;2023-07-30T23:54:12;18.50;73.60
12164;DHT22;6145;50.192;10.064;2023-07-30T23:56:39;18.20;73.50
12164;DHT22;6145;50.192;10.064;2023-07-30T23:59:06;18.20;73.40
